sensor_id;sensor_type;location;lat;lon;timestamp;temperature;humidity
18948;DHT22;9607;51.600;7.558;2023-05-27T00:01:51;9.30;99.90
18948;DHT22;9607;51.600;7.558;2023-05-27T00:04:18;9.20;99.90
18948;DHT22;9607;51.600;7.558;2023-05-27T00:06:47;9.20;99.90
18948;DHT22;9607;51.600;7.558;2023-05-27T00:09:14;9.10;99.90
18948;DHT22;9607;51.600;7.558;2023-05-27T00:11:41;9.10;99.90
18948;DHT22;9607;51.600;7.558;2023-05-27T00:14:08;9.00;99.90
18948;DHT22;9607;51.600;7.558;2023-05-27T00:16:35;9.00;99.90
18948;DHT22;9607;51.600;7.558;2023-05-27T00:19:03;8.90;99.90
18948;DHT22;9607;51.600;7.558;2023-05-27T00:21:31;8.90;99.90
18948;DHT22;9607;51.600;7.558;2023-05-27T00:23:59;8.80;99.90
18948;DHT22;9607;51.600;7.558;2023-05-27T00:26:26;8.80;99.90
18948;DHT22;9607;51.600;7.558;2023-05-27T00:28:53;8.80;99.90
18948;DHT22;9607;51.600;7.558;2023-05-27T00:31:20;8.80;99.90
18948;DHT22;9607;51.600;7.558;2023-05-27T00:33:47;8.70;99.90
18948;DHT22;9607;51.600;7.558;2023-05-27T00:36:14;8.70;99.90
18948;DHT22;9607;51.600;7.558;2023-05-27T00:38:41;8.60;99.90
18948;DHT22;9607;51.600;7.558;2023-05-27T00:41:10;8.60;99.90
18948;DHT22;9607;51.600;7.558;2023-05-27T00:43:38;8.50;99.90
18948;DHT22;9607;51.600;7.558;2023-05-27T00:46:05;8.50;99.90
18948;DHT22;9607;51.600;7.558;2023-05-27T00:48:32;8.50;99.90
18948;DHT22;9607;51.600;7.558;2023-05-27T00:50:59;8.50;99.90
18948;DHT22;9607;51.600;7.558;2023-05-27T00:53:26;8.50;99.90
18948;DHT22;9607;51.600;7.558;2023-05-27T00:55:53;8.40;99.90
18948;DHT22;9607;51.600;7.558;2023-05-27T00:58:24;8.40;99.90
18948;DHT22;9607;51.600;7.558;2023-05-27T01:00:52;8.40;99.90
18948;DHT22;9607;51.600;7.558;2023-05-27T01:03:20;8.30;99.90
18948;DHT22;9607;51.600;7.558;2023-05-27T01:05:47;8.30;99.90
18948;DHT22;9607;51.600;7.558;2023-05-27T01:08:21;8.30;99.90
18948;DHT22;9607;51.600;7.558;2023-05-27T01:10:52;8.20;99.90
18948;DHT22;9607;51.600;7.558;2023-05-27T01:13:31;8.20;99.90
18948;DHT22;9607;51.600;7.558;2023-05-27T01:16:00;8.10;99.90
18948;DHT22;9607;51.600;7.558;2023-05-27T01:18:28;8.10;99.90
18948;DHT22;9607;51.600;7.558;2023-05-27T01:21:03;8.10;99.90
18948;DHT22;9607;51.600;7.558;2023-05-27T01:23:31;8.00;99.90
18948;DHT22;9607;51.600;7.558;2023-05-27T01:25:58;8.00;99.90
18948;DHT22;9607;51.600;7.558;2023-05-27T01:28:26;7.90;99.90
18948;DHT22;9607;51.600;7.558;2023-05-27T01:30:55;7.90;99.90
18948;DHT22;9607;51.600;7.558;2023-05-27T01:33:25;7.90;99.90
18948;DHT22;9607;51.600;7.558;2023-05-27T01:36:04;7.90;99.90
18948;DHT22;9607;51.600;7.558;2023-05-27T01:38:33;7.80;99.90
18948;DHT22;9607;51.600;7.558;2023-05-27T01:41:01;7.80;99.90
18948;DHT22;9607;51.600;7.558;2023-05-27T01:43:28;7.80;99.90
18948;DHT22;9607;51.600;7.558;2023-05-27T01:45:55;7.80;99.90
18948;DHT22;9607;51.600;7.558;2023-05-27T01:48:22;7.80;99.90
18948;DHT22;9607;51.600;7.558;2023-05-27T01:50:49;7.70;99.90
18948;DHT22;9607;51.600;7.558;2023-05-27T01:53:16;7.70;99.90
18948;DHT22;9607;51.600;7.558;2023-05-27T01:55:44;7.70;99.90
18948;DHT22;9607;51.600;7.558;2023-05-27T01:58:12;7.60;99.90
18948;DHT22;9607;51.600;7.558;2023-05-27T02:00:39;7.60;99.90
18948;DHT22;9607;51.600;7.558;2023-05-27T02:03:06;7.60;99.90
18948;DHT22;9607;51.600;7.558;2023-05-27T02:05:33;7.60;99.90
18948;DHT22;9607;51.600;7.558;2023-05-27T02:08:01;7.60;99.90
18948;DHT22;9607;51.600;7.558;2023-05-27T02:10:28;7.60;99.90
18948;DHT22;9607;51.600;7.558;2023-05-27T02:12:56;7.60;99.90
18948;DHT22;9607;51.600;7.558;2023-05-27T02:15:23;7.60;99.90
18948;DHT22;9607;51.600;7.558;2023-05-27T02:17:51;7.50;99.90
18948;DHT22;9607;51.600;7.558;2023-05-27T02:20:21;7.50;99.90
18948;DHT22;9607;51.600;7.558;2023-05-27T02:22:48;7.50;99.90
18948;DHT22;9607;51.600;7.558;2023-05-27T02:25:15;7.50;99.90
18948;DHT22;9607;51.600;7.558;2023-05-27T02:27:42;7.50;99.90
18948;DHT22;9607;51.600;7.558;2023-05-27T02:30:15;7.50;99.90
18948;DHT22;9607;51.600;7.558;2023-05-27T02:32:42;7.50;99.90
18948;DHT22;9607;51.600;7.558;2023-05-27T02:35:12;7.50;99.90
18948;DHT22;9607;51.600;7.558;2023-05-27T02:37:39;7.40;99.90
18948;DHT22;9607;51.600;7.558;2023-05-27T02:40:07;7.40;99.90
18948;DHT22;9607;51.600;7.558;2023-05-27T02:42:35;7.40;99.90
18948;DHT22;9607;51.600;7.558;2023-05-27T02:45:02;7.40;99.90
18948;DHT22;9607;51.600;7.558;2023-05-27T02:47:30;7.40;99.90
18948;DHT22;9607;51.600;7.558;2023-05-27T02:49:57;7.40;99.90
18948;DHT22;9607;51.600;7.558;2023-05-27T02:52:24;7.30;99.90
18948;DHT22;9607;51.600;7.558;2023-05-27T02:54:50;7.30;99.90
18948;DHT22;9607;51.600;7.558;2023-05-27T02:57:18;7.30;99.90
18948;DHT22;9607;51.600;7.558;2023-05-27T02:59:45;7.30;99.90
18948;DHT22;9607;51.600;7.558;2023-05-27T03:02:12;7.20;99.90
18948;DHT22;9607;51.600;7.558;2023-05-27T03:04:40;7.20;99.90
18948;DHT22;9607;51.600;7.558;2023-05-27T03:07:08;7.20;99.90
18948;DHT22;9607;51.600;7.558;2023-05-27T03:09:35;7.20;99.90
18948;DHT22;9607;51.600;7.558;2023-05-27T03:12:02;7.20;99.90
18948;DHT22;9607;51.600;7.558;2023-05-27T03:14:29;7.10;99.90
18948;DHT22;9607;51.600;7.558;2023-05-27T03:16:55;7.10;99.90
18948;DHT22;9607;51.600;7.558;2023-05-27T03:19:22;7.20;99.90
18948;DHT22;9607;51.600;7.558;2023-05-27T03:21:50;7.10;99.90
18948;DHT22;9607;51.600;7.558;2023-05-27T03:24:17;7.10;99.90
18948;DHT22;9607;51.600;7.558;2023-05-27T03:26:44;7.10;99.90
18948;DHT22;9607;51.600;7.558;2023-05-27T03:29:11;7.10;99.90
18948;DHT22;9607;51.600;7.558;2023-05-27T03:31:38;7.10;99.90
18948;DHT22;9607;51.600;7.558;2023-05-27T03:34:05;7.10;99.90
18948;DHT22;9607;51.600;7.558;2023-05-27T03:36:32;7.10;99.90
18948;DHT22;9607;51.600;7.558;2023-05-27T03:39:02;7.10;99.90
18948;DHT22;9607;51.600;7.558;2023-05-27T03:41:29;7.10;99.90
18948;DHT22;9607;51.600;7.558;2023-05-27T03:43:56;7.10;99.90
18948;DHT22;9607;51.600;7.558;2023-05-27T03:46:23;7.10;99.90
18948;DHT22;9607;51.600;7.558;2023-05-27T03:48:50;7.10;99.90
18948;DHT22;9607;51.600;7.558;2023-05-27T03:51:17;7.10;99.90
18948;DHT22;9607;51.600;7.558;2023-05-27T03:53:44;7.10;99.90
18948;DHT22;9607;51.600;7.558;2023-05-27T03:56:12;7.10;99.90
18948;DHT22;9607;51.600;7.558;2023-05-27T03:58:39;7.10;99.90
18948;DHT22;9607;51.600;7.558;2023-05-27T04:01:06;7.20;99.90
18948;DHT22;9607;51.600;7.558;2023-05-27T04:03:34;7.20;99.90
18948;DHT22;9607;51.600;7.558;2023-05-27T04:06:00;7.20;99.90
18948;DHT22;9607;51.600;7.558;2023-05-27T04:08:27;7.20;99.90
18948;DHT22;9607;51.600;7.558;2023-05-27T04:10:54;7.20;99.90
18948;DHT22;9607;51.600;7.558;2023-05-27T04:13:23;7.20;99.90
18948;DHT22;9607;51.600;7.558;2023-05-27T04:15:49;7.30;99.90
18948;DHT22;9607;51.600;7.558;2023-05-27T04:18:16;7.30;99.90
18948;DHT22;9607;51.600;7.558;2023-05-27T04:20:43;7.30;99.90
18948;DHT22;9607;51.600;7.558;2023-05-27T04:23:12;7.40;99.90
18948;DHT22;9607;51.600;7.558;2023-05-27T04:25:39;7.50;99.90
18948;DHT22;9607;51.600;7.558;2023-05-27T04:28:09;7.50;99.90
18948;DHT22;9607;51.600;7.558;2023-05-27T04:30:37;7.50;99.90
18948;DHT22;9607;51.600;7.558;2023-05-27T04:33:06;7.60;99.90
18948;DHT22;9607;51.600;7.558;2023-05-27T04:35:33;7.60;99.90
18948;DHT22;9607;51.600;7.558;2023-05-27T04:38:00;7.60;99.90
18948;DHT22;9607;51.600;7.558;2023-05-27T04:40:27;7.70;99.90
18948;DHT22;9607;51.600;7.558;2023-05-27T04:42:55;7.80;99.90
18948;DHT22;9607;51.600;7.558;2023-05-27T04:45:22;7.80;99.90
18948;DHT22;9607;51.600;7.558;2023-05-27T04:47:50;7.90;99.90
18948;DHT22;9607;51.600;7.558;2023-05-27T04:50:17;8.00;99.90
18948;DHT22;9607;51.600;7.558;2023-05-27T04:52:44;8.00;99.90
18948;DHT22;9607;51.600;7.558;2023-05-27T04:55:11;8.10;99.90
18948;DHT22;9607;51.600;7.558;2023-05-27T04:57:38;8.20;99.90
18948;DHT22;9607;51.600;7.558;2023-05-27T05:00:09;8.20;99.90
18948;DHT22;9607;51.600;7.558;2023-05-27T05:02:50;8.30;99.90
18948;DHT22;9607;51.600;7.558;2023-05-27T05:05:26;8.40;99.90
18948;DHT22;9607;51.600;7.558;2023-05-27T05:07:53;8.50;99.90
18948;DHT22;9607;51.600;7.558;2023-05-27T05:10:20;8.50;99.90
18948;DHT22;9607;51.600;7.558;2023-05-27T05:12:47;8.60;99.90
18948;DHT22;9607;51.600;7.558;2023-05-27T05:15:14;8.70;99.90
18948;DHT22;9607;51.600;7.558;2023-05-27T05:17:41;8.70;99.90
18948;DHT22;9607;51.600;7.558;2023-05-27T05:20:12;8.80;99.90
18948;DHT22;9607;51.600;7.558;2023-05-27T05:22:39;8.90;99.90
18948;DHT22;9607;51.600;7.558;2023-05-27T05:25:06;9.00;99.90
18948;DHT22;9607;51.600;7.558;2023-05-27T05:27:33;9.10;99.90
18948;DHT22;9607;51.600;7.558;2023-05-27T05:30:02;9.10;99.90
18948;DHT22;9607;51.600;7.558;2023-05-27T05:32:29;9.30;99.90
18948;DHT22;9607;51.600;7.558;2023-05-27T05:34:56;9.40;99.90
18948;DHT22;9607;51.600;7.558;2023-05-27T05:37:24;9.40;99.90
18948;DHT22;9607;51.600;7.558;2023-05-27T05:39:54;9.50;99.90
18948;DHT22;9607;51.600;7.558;2023-05-27T05:42:21;9.60;99.90
18948;DHT22;9607;51.600;7.558;2023-05-27T05:44:49;9.80;99.90
18948;DHT22;9607;51.600;7.558;2023-05-27T05:47:16;9.90;99.90
18948;DHT22;9607;51.600;7.558;2023-05-27T05:49:43;10.00;99.90
18948;DHT22;9607;51.600;7.558;2023-05-27T05:52:10;10.10;99.90
18948;DHT22;9607;51.600;7.558;2023-05-27T05:54:38;10.20;99.90
18948;DHT22;9607;51.600;7.558;2023-05-27T05:57:04;10.40;99.90
18948;DHT22;9607;51.600;7.558;2023-05-27T05:59:32;10.50;99.90
18948;DHT22;9607;51.600;7.558;2023-05-27T06:01:59;10.60;99.90
18948;DHT22;9607;51.600;7.558;2023-05-27T06:04:26;10.70;99.90
18948;DHT22;9607;51.600;7.558;2023-05-27T06:06:52;10.90;99.90
18948;DHT22;9607;51.600;7.558;2023-05-27T06:09:19;11.00;99.90
18948;DHT22;9607;51.600;7.558;2023-05-27T06:11:47;11.10;99.90
18948;DHT22;9607;51.600;7.558;2023-05-27T06:14:14;11.20;99.90
18948;DHT22;9607;51.600;7.558;2023-05-27T06:16:41;11.40;99.90
18948;DHT22;9607;51.600;7.558;2023-05-27T06:19:09;11.40;99.90
18948;DHT22;9607;51.600;7.558;2023-05-27T06:21:36;11.50;99.90
18948;DHT22;9607;51.600;7.558;2023-05-27T06:24:03;11.60;99.90
18948;DHT22;9607;51.600;7.558;2023-05-27T06:26:30;11.60;99.90
18948;DHT22;9607;51.600;7.558;2023-05-27T06:28:58;11.70;99.90
18948;DHT22;9607;51.600;7.558;2023-05-27T06:31:25;11.80;99.90
18948;DHT22;9607;51.600;7.558;2023-05-27T06:33:53;11.90;99.90
18948;DHT22;9607;51.600;7.558;2023-05-27T06:36:28;12.00;99.90
18948;DHT22;9607;51.600;7.558;2023-05-27T06:38:56;12.10;99.90
18948;DHT22;9607;51.600;7.558;2023-05-27T06:41:24;12.20;99.90
18948;DHT22;9607;51.600;7.558;2023-05-27T06:43:51;12.30;99.90
18948;DHT22;9607;51.600;7.558;2023-05-27T06:46:19;12.40;99.90
18948;DHT22;9607;51.600;7.558;2023-05-27T06:48:46;12.50;99.90
18948;DHT22;9607;51.600;7.558;2023-05-27T06:51:14;12.60;99.90
18948;DHT22;9607;51.600;7.558;2023-05-27T06:53:41;12.70;99.90
18948;DHT22;9607;51.600;7.558;2023-05-27T06:56:08;12.80;99.90
18948;DHT22;9607;51.600;7.558;2023-05-27T06:58:35;12.90;99.90
18948;DHT22;9607;51.600;7.558;2023-05-27T07:01:02;13.00;99.90
18948;DHT22;9607;51.600;7.558;2023-05-27T07:03:30;13.20;99.90
18948;DHT22;9607;51.600;7.558;2023-05-27T07:05:57;13.30;99.90
18948;DHT22;9607;51.600;7.558;2023-05-27T07:08:23;13.40;99.90
18948;DHT22;9607;51.600;7.558;2023-05-27T07:10:50;13.50;99.90
18948;DHT22;9607;51.600;7.558;2023-05-27T07:13:17;13.60;99.90
18948;DHT22;9607;51.600;7.558;2023-05-27T07:15:44;13.70;99.90
18948;DHT22;9607;51.600;7.558;2023-05-27T07:18:11;13.80;99.90
18948;DHT22;9607;51.600;7.558;2023-05-27T07:20:39;13.90;99.90
18948;DHT22;9607;51.600;7.558;2023-05-27T07:23:06;14.00;99.90
18948;DHT22;9607;51.600;7.558;2023-05-27T07:25:34;14.00;99.90
18948;DHT22;9607;51.600;7.558;2023-05-27T07:28:01;14.10;99.90
18948;DHT22;9607;51.600;7.558;2023-05-27T07:30:27;14.20;99.90
18948;DHT22;9607;51.600;7.558;2023-05-27T07:32:54;14.30;99.90
18948;DHT22;9607;51.600;7.558;2023-05-27T07:35:21;14.40;99.90
18948;DHT22;9607;51.600;7.558;2023-05-27T07:37:49;14.60;99.90
18948;DHT22;9607;51.600;7.558;2023-05-27T07:40:17;14.60;99.90
18948;DHT22;9607;51.600;7.558;2023-05-27T07:42:43;14.70;99.90
18948;DHT22;9607;51.600;7.558;2023-05-27T07:45:11;14.80;99.90
18948;DHT22;9607;51.600;7.558;2023-05-27T07:47:37;14.90;99.90
18948;DHT22;9607;51.600;7.558;2023-05-27T07:50:05;15.00;99.90
18948;DHT22;9607;51.600;7.558;2023-05-27T07:52:32;15.10;99.90
18948;DHT22;9607;51.600;7.558;2023-05-27T07:55:00;15.20;99.90
18948;DHT22;9607;51.600;7.558;2023-05-27T07:57:27;15.30;99.90
18948;DHT22;9607;51.600;7.558;2023-05-27T07:59:54;15.40;99.90
18948;DHT22;9607;51.600;7.558;2023-05-27T08:02:21;15.50;99.90
18948;DHT22;9607;51.600;7.558;2023-05-27T08:04:48;15.60;99.90
18948;DHT22;9607;51.600;7.558;2023-05-27T08:07:15;15.70;99.90
18948;DHT22;9607;51.600;7.558;2023-05-27T08:09:41;15.80;99.90
18948;DHT22;9607;51.600;7.558;2023-05-27T08:12:10;15.90;99.90
18948;DHT22;9607;51.600;7.558;2023-05-27T08:14:39;16.00;99.90
18948;DHT22;9607;51.600;7.558;2023-05-27T08:17:06;16.10;99.90
18948;DHT22;9607;51.600;7.558;2023-05-27T08:19:32;16.10;99.90
18948;DHT22;9607;51.600;7.558;2023-05-27T08:21:59;16.20;99.90
18948;DHT22;9607;51.600;7.558;2023-05-27T08:24:27;16.30;99.90
18948;DHT22;9607;51.600;7.558;2023-05-27T08:26:55;16.30;99.90
18948;DHT22;9607;51.600;7.558;2023-05-27T08:29:24;16.50;99.90
18948;DHT22;9607;51.600;7.558;2023-05-27T08:31:53;16.60;99.90
18948;DHT22;9607;51.600;7.558;2023-05-27T08:34:20;16.60;99.90
18948;DHT22;9607;51.600;7.558;2023-05-27T08:36:47;16.70;99.90
18948;DHT22;9607;51.600;7.558;2023-05-27T08:39:14;16.70;99.90
18948;DHT22;9607;51.600;7.558;2023-05-27T08:41:41;16.80;99.90
18948;DHT22;9607;51.600;7.558;2023-05-27T08:44:08;16.90;99.90
18948;DHT22;9607;51.600;7.558;2023-05-27T08:46:37;17.00;99.90
18948;DHT22;9607;51.600;7.558;2023-05-27T08:49:06;17.00;99.90
18948;DHT22;9607;51.600;7.558;2023-05-27T08:51:33;17.10;99.90
18948;DHT22;9607;51.600;7.558;2023-05-27T08:54:01;17.20;99.90
18948;DHT22;9607;51.600;7.558;2023-05-27T08:56:29;17.30;99.90
18948;DHT22;9607;51.600;7.558;2023-05-27T08:58:57;17.40;99.90
18948;DHT22;9607;51.600;7.558;2023-05-27T09:01:26;17.40;99.90
18948;DHT22;9607;51.600;7.558;2023-05-27T09:03:55;17.50;99.90
18948;DHT22;9607;51.600;7.558;2023-05-27T09:06:22;17.50;99.90
18948;DHT22;9607;51.600;7.558;2023-05-27T09:08:49;17.60;99.90
18948;DHT22;9607;51.600;7.558;2023-05-27T09:11:21;17.70;99.90
18948;DHT22;9607;51.600;7.558;2023-05-27T09:13:49;17.80;99.90
18948;DHT22;9607;51.600;7.558;2023-05-27T09:16:20;17.90;99.90
18948;DHT22;9607;51.600;7.558;2023-05-27T09:18:48;17.90;99.90
18948;DHT22;9607;51.600;7.558;2023-05-27T09:21:16;18.10;99.90
18948;DHT22;9607;51.600;7.558;2023-05-27T09:23:43;18.20;99.90
18948;DHT22;9607;51.600;7.558;2023-05-27T09:26:11;18.20;99.90
18948;DHT22;9607;51.600;7.558;2023-05-27T09:28:38;18.40;99.90
18948;DHT22;9607;51.600;7.558;2023-05-27T09:31:06;18.40;99.90
18948;DHT22;9607;51.600;7.558;2023-05-27T09:33:36;18.50;99.90
18948;DHT22;9607;51.600;7.558;2023-05-27T09:36:05;18.60;99.90
18948;DHT22;9607;51.600;7.558;2023-05-27T09:38:34;18.60;99.90
18948;DHT22;9607;51.600;7.558;2023-05-27T09:41:03;18.70;99.90
18948;DHT22;9607;51.600;7.558;2023-05-27T09:43:30;18.80;98.80
18948;DHT22;9607;51.600;7.558;2023-05-27T09:45:59;18.90;99.20
18948;DHT22;9607;51.600;7.558;2023-05-27T09:48:27;19.00;97.80
18948;DHT22;9607;51.600;7.558;2023-05-27T09:50:56;19.10;96.90
18948;DHT22;9607;51.600;7.558;2023-05-27T09:53:24;19.10;95.90
18948;DHT22;9607;51.600;7.558;2023-05-27T09:55:53;19.20;96.50
18948;DHT22;9607;51.600;7.558;2023-05-27T09:58:21;19.30;96.30
18948;DHT22;9607;51.600;7.558;2023-05-27T10:00:49;19.40;94.80
18948;DHT22;9607;51.600;7.558;2023-05-27T10:03:16;19.40;92.60
18948;DHT22;9607;51.600;7.558;2023-05-27T10:05:44;19.40;91.90
18948;DHT22;9607;51.600;7.558;2023-05-27T10:08:11;19.40;90.40
18948;DHT22;9607;51.600;7.558;2023-05-27T10:10:38;19.50;90.20
18948;DHT22;9607;51.600;7.558;2023-05-27T10:13:08;19.50;90.10
18948;DHT22;9607;51.600;7.558;2023-05-27T10:15:35;19.50;91.10
18948;DHT22;9607;51.600;7.558;2023-05-27T10:18:03;19.70;91.60
18948;DHT22;9607;51.600;7.558;2023-05-27T10:20:34;19.70;91.40
18948;DHT22;9607;51.600;7.558;2023-05-27T10:23:09;19.80;91.20
18948;DHT22;9607;51.600;7.558;2023-05-27T10:25:37;19.90;90.30
18948;DHT22;9607;51.600;7.558;2023-05-27T10:28:04;19.90;88.30
18948;DHT22;9607;51.600;7.558;2023-05-27T10:30:44;19.90;86.00
18948;DHT22;9607;51.600;7.558;2023-05-27T10:33:11;19.90;84.60
18948;DHT22;9607;51.600;7.558;2023-05-27T10:35:39;19.90;83.70
18948;DHT22;9607;51.600;7.558;2023-05-27T10:38:14;20.00;85.30
18948;DHT22;9607;51.600;7.558;2023-05-27T10:40:42;20.00;88.50
18948;DHT22;9607;51.600;7.558;2023-05-27T10:43:15;20.20;87.20
18948;DHT22;9607;51.600;7.558;2023-05-27T10:45:44;20.30;84.50
18948;DHT22;9607;51.600;7.558;2023-05-27T10:48:18;20.30;84.40
18948;DHT22;9607;51.600;7.558;2023-05-27T10:50:52;20.50;85.00
18948;DHT22;9607;51.600;7.558;2023-05-27T10:53:19;20.70;86.50
18948;DHT22;9607;51.600;7.558;2023-05-27T10:55:47;20.70;84.60
18948;DHT22;9607;51.600;7.558;2023-05-27T10:58:16;20.80;83.10
18948;DHT22;9607;51.600;7.558;2023-05-27T11:00:48;20.80;83.80
18948;DHT22;9607;51.600;7.558;2023-05-27T11:03:20;20.90;81.20
18948;DHT22;9607;51.600;7.558;2023-05-27T11:05:57;21.00;80.60
18948;DHT22;9607;51.600;7.558;2023-05-27T11:08:24;21.00;78.80
18948;DHT22;9607;51.600;7.558;2023-05-27T11:10:51;21.10;78.60
18948;DHT22;9607;51.600;7.558;2023-05-27T11:13:32;21.20;78.50
18948;DHT22;9607;51.600;7.558;2023-05-27T11:16:02;21.20;79.60
18948;DHT22;9607;51.600;7.558;2023-05-27T11:18:37;21.30;79.10
18948;DHT22;9607;51.600;7.558;2023-05-27T11:21:05;21.30;78.00
18948;DHT22;9607;51.600;7.558;2023-05-27T11:23:36;21.40;79.60
18948;DHT22;9607;51.600;7.558;2023-05-27T11:26:10;21.50;77.10
18948;DHT22;9607;51.600;7.558;2023-05-27T11:28:38;21.50;75.90
18948;DHT22;9607;51.600;7.558;2023-05-27T11:31:07;21.60;76.80
18948;DHT22;9607;51.600;7.558;2023-05-27T11:33:34;21.70;76.80
18948;DHT22;9607;51.600;7.558;2023-05-27T11:36:05;21.80;75.60
18948;DHT22;9607;51.600;7.558;2023-05-27T11:38:45;21.90;74.20
18948;DHT22;9607;51.600;7.558;2023-05-27T11:41:12;22.00;74.30
18948;DHT22;9607;51.600;7.558;2023-05-27T11:43:47;22.00;73.20
18948;DHT22;9607;51.600;7.558;2023-05-27T11:46:15;22.00;71.00
18948;DHT22;9607;51.600;7.558;2023-05-27T11:48:43;22.20;72.50
18948;DHT22;9607;51.600;7.558;2023-05-27T11:51:10;22.30;71.00
18948;DHT22;9607;51.600;7.558;2023-05-27T11:53:39;22.40;70.10
18948;DHT22;9607;51.600;7.558;2023-05-27T11:56:07;22.50;71.30
18948;DHT22;9607;51.600;7.558;2023-05-27T11:58:35;22.60;71.50
18948;DHT22;9607;51.600;7.558;2023-05-27T12:01:03;22.70;70.80
18948;DHT22;9607;51.600;7.558;2023-05-27T12:03:33;22.80;69.70
18948;DHT22;9607;51.600;7.558;2023-05-27T12:06:00;23.00;69.40
18948;DHT22;9607;51.600;7.558;2023-05-27T12:08:27;23.10;66.00
18948;DHT22;9607;51.600;7.558;2023-05-27T12:10:54;23.30;66.50
18948;DHT22;9607;51.600;7.558;2023-05-27T12:13:21;23.90;64.60
18948;DHT22;9607;51.600;7.558;2023-05-27T12:15:48;24.90;61.50
18948;DHT22;9607;51.600;7.558;2023-05-27T12:18:16;25.80;58.70
18948;DHT22;9607;51.600;7.558;2023-05-27T12:20:45;26.80;57.70
18948;DHT22;9607;51.600;7.558;2023-05-27T12:23:12;27.70;55.30
18948;DHT22;9607;51.600;7.558;2023-05-27T12:25:39;28.40;51.70
18948;DHT22;9607;51.600;7.558;2023-05-27T12:28:07;29.20;50.00
18948;DHT22;9607;51.600;7.558;2023-05-27T12:30:34;29.90;48.50
18948;DHT22;9607;51.600;7.558;2023-05-27T12:33:02;30.40;47.60
18948;DHT22;9607;51.600;7.558;2023-05-27T12:35:29;30.80;46.40
18948;DHT22;9607;51.600;7.558;2023-05-27T12:37:57;31.10;45.30
18948;DHT22;9607;51.600;7.558;2023-05-27T12:40:24;31.70;43.90
18948;DHT22;9607;51.600;7.558;2023-05-27T12:42:51;32.10;42.20
18948;DHT22;9607;51.600;7.558;2023-05-27T12:45:18;32.50;41.70
18948;DHT22;9607;51.600;7.558;2023-05-27T12:47:47;32.40;40.80
18948;DHT22;9607;51.600;7.558;2023-05-27T12:50:14;32.30;40.80
18948;DHT22;9607;51.600;7.558;2023-05-27T12:52:41;32.60;40.70
18948;DHT22;9607;51.600;7.558;2023-05-27T12:55:13;33.00;39.70
18948;DHT22;9607;51.600;7.558;2023-05-27T12:57:42;33.10;39.40
18948;DHT22;9607;51.600;7.558;2023-05-27T13:00:11;33.30;39.30
18948;DHT22;9607;51.600;7.558;2023-05-27T13:02:38;33.70;38.60
18948;DHT22;9607;51.600;7.558;2023-05-27T13:05:06;34.00;37.20
18948;DHT22;9607;51.600;7.558;2023-05-27T13:07:34;34.10;36.30
18948;DHT22;9607;51.600;7.558;2023-05-27T13:10:02;34.00;36.20
18948;DHT22;9607;51.600;7.558;2023-05-27T13:12:32;33.70;36.20
18948;DHT22;9607;51.600;7.558;2023-05-27T13:15:01;33.20;36.50
18948;DHT22;9607;51.600;7.558;2023-05-27T13:17:29;32.60;36.70
18948;DHT22;9607;51.600;7.558;2023-05-27T13:19:56;31.90;36.70
18948;DHT22;9607;51.600;7.558;2023-05-27T13:22:23;31.30;37.80
18948;DHT22;9607;51.600;7.558;2023-05-27T13:24:50;30.70;37.60
18948;DHT22;9607;51.600;7.558;2023-05-27T13:27:17;30.20;38.10
18948;DHT22;9607;51.600;7.558;2023-05-27T13:29:45;29.70;38.40
18948;DHT22;9607;51.600;7.558;2023-05-27T13:32:12;29.10;39.90
18948;DHT22;9607;51.600;7.558;2023-05-27T13:34:40;28.60;41.50
18948;DHT22;9607;51.600;7.558;2023-05-27T13:37:07;28.10;42.30
18948;DHT22;9607;51.600;7.558;2023-05-27T13:39:34;27.50;42.70
18948;DHT22;9607;51.600;7.558;2023-05-27T13:42:00;27.00;43.60
18948;DHT22;9607;51.600;7.558;2023-05-27T13:44:27;26.70;44.60
18948;DHT22;9607;51.600;7.558;2023-05-27T13:46:55;26.50;45.00
18948;DHT22;9607;51.600;7.558;2023-05-27T13:49:22;26.30;45.70
18948;DHT22;9607;51.600;7.558;2023-05-27T13:51:49;26.20;46.00
18948;DHT22;9607;51.600;7.558;2023-05-27T13:54:16;26.00;45.60
18948;DHT22;9607;51.600;7.558;2023-05-27T13:56:43;25.90;45.60
18948;DHT22;9607;51.600;7.558;2023-05-27T13:59:11;25.70;45.80
18948;DHT22;9607;51.600;7.558;2023-05-27T14:01:38;25.50;45.80
18948;DHT22;9607;51.600;7.558;2023-05-27T14:04:07;25.40;46.70
18948;DHT22;9607;51.600;7.558;2023-05-27T14:06:34;25.40;47.70
18948;DHT22;9607;51.600;7.558;2023-05-27T14:09:02;25.40;48.30
18948;DHT22;9607;51.600;7.558;2023-05-27T14:11:29;25.40;47.20
18948;DHT22;9607;51.600;7.558;2023-05-27T14:13:56;25.30;46.30
18948;DHT22;9607;51.600;7.558;2023-05-27T14:16:23;25.20;45.50
18948;DHT22;9607;51.600;7.558;2023-05-27T14:18:49;25.10;44.60
18948;DHT22;9607;51.600;7.558;2023-05-27T14:21:18;25.20;44.70
18948;DHT22;9607;51.600;7.558;2023-05-27T14:23:44;25.20;45.50
18948;DHT22;9607;51.600;7.558;2023-05-27T14:26:11;25.40;47.10
18948;DHT22;9607;51.600;7.558;2023-05-27T14:28:38;25.50;46.60
18948;DHT22;9607;51.600;7.558;2023-05-27T14:31:05;25.60;46.80
18948;DHT22;9607;51.600;7.558;2023-05-27T14:33:32;25.70;46.10
18948;DHT22;9607;51.600;7.558;2023-05-27T14:35:59;25.90;46.80
18948;DHT22;9607;51.600;7.558;2023-05-27T14:38:28;26.00;46.20
18948;DHT22;9607;51.600;7.558;2023-05-27T14:40:56;26.10;45.50
18948;DHT22;9607;51.600;7.558;2023-05-27T14:43:22;26.10;44.80
18948;DHT22;9607;51.600;7.558;2023-05-27T14:45:49;26.30;45.60
18948;DHT22;9607;51.600;7.558;2023-05-27T14:48:16;26.50;44.60
18948;DHT22;9607;51.600;7.558;2023-05-27T14:50:43;26.70;43.60
18948;DHT22;9607;51.600;7.558;2023-05-27T14:53:10;27.10;43.80
18948;DHT22;9607;51.600;7.558;2023-05-27T14:55:39;27.50;43.70
18948;DHT22;9607;51.600;7.558;2023-05-27T14:58:06;27.80;42.60
18948;DHT22;9607;51.600;7.558;2023-05-27T15:00:33;28.10;41.50
18948;DHT22;9607;51.600;7.558;2023-05-27T15:03:00;28.20;41.20
18948;DHT22;9607;51.600;7.558;2023-05-27T15:05:27;28.50;40.80
18948;DHT22;9607;51.600;7.558;2023-05-27T15:07:53;29.00;41.40
18948;DHT22;9607;51.600;7.558;2023-05-27T15:10:20;30.10;41.70
18948;DHT22;9607;51.600;7.558;2023-05-27T15:12:49;31.80;39.30
18948;DHT22;9607;51.600;7.558;2023-05-27T15:15:19;33.90;35.80
18948;DHT22;9607;51.600;7.558;2023-05-27T15:17:47;35.90;33.60
18948;DHT22;9607;51.600;7.558;2023-05-27T15:20:17;37.90;32.10
18948;DHT22;9607;51.600;7.558;2023-05-27T15:22:45;39.50;29.00
18948;DHT22;9607;51.600;7.558;2023-05-27T15:25:12;40.60;27.50
18948;DHT22;9607;51.600;7.558;2023-05-27T15:27:39;41.40;26.80
18948;DHT22;9607;51.600;7.558;2023-05-27T15:30:08;42.10;26.00
18948;DHT22;9607;51.600;7.558;2023-05-27T15:32:35;42.60;25.50
18948;DHT22;9607;51.600;7.558;2023-05-27T15:35:03;43.30;25.60
18948;DHT22;9607;51.600;7.558;2023-05-27T15:37:30;43.90;24.50
18948;DHT22;9607;51.600;7.558;2023-05-27T15:39:57;44.50;24.40
18948;DHT22;9607;51.600;7.558;2023-05-27T15:42:24;45.20;23.90
18948;DHT22;9607;51.600;7.558;2023-05-27T15:44:51;45.80;23.20
18948;DHT22;9607;51.600;7.558;2023-05-27T15:47:21;46.20;23.00
18948;DHT22;9607;51.600;7.558;2023-05-27T15:49:48;46.60;23.00
18948;DHT22;9607;51.600;7.558;2023-05-27T15:52:15;47.00;22.80
18948;DHT22;9607;51.600;7.558;2023-05-27T15:54:42;47.20;22.10
18948;DHT22;9607;51.600;7.558;2023-05-27T15:57:09;47.10;21.70